Martinsburg, Nebraska
Current Conditions -  °F | °C
As of 8:32 AM on Sunday 23 Nov 2014 (Local Time) from KSUX Reporting Station
Broken Clouds Broken Clouds  
Wind Chill: 40°   Ceiling: 12000
Heat Index: 47°   Visibility: 10mi
Dew Point: 39°   Wind: 18mph
Humidity: 74%   Direction: 320°NW
Pressure: 29.49"   Gusts: 24mph
Location:  42.5817°N, 96.7269°W
Report Text: KSUX 231432Z 32016G21KT 10SM FEW015 SCT021 BKN120 08/04 A2949 RMK AO2 T00830039
Loading
Personal Weather Stations






























Interactive Weather Map New forecast layout! Learn more

10-Day Weather Forecast

Advertisements
Track Severe Weather on mobile